sensor_id;sensor_type;location;lat;lon;timestamp;P1;durP1;ratioP1;P2;durP2;ratioP2
62844;SDS011;48929;47.910;20.390;2022-12-29T00:01:04;27.00;;;11.43;;
62844;SDS011;48929;47.910;20.390;2022-12-29T00:03:32;22.08;;;11.10;;
62844;SDS011;48929;47.910;20.390;2022-12-29T00:06:01;23.10;;;10.40;;
62844;SDS011;48929;47.910;20.390;2022-12-29T00:08:31;20.27;;;10.55;;
62844;SDS011;48929;47.910;20.390;2022-12-29T00:11:07;37.00;;;14.80;;
62844;SDS011;48929;47.910;20.390;2022-12-29T00:13:36;35.17;;;16.30;;
62844;SDS011;48929;47.910;20.390;2022-12-29T00:16:21;34.47;;;15.53;;
62844;SDS011;48929;47.910;20.390;2022-12-29T00:18:50;30.67;;;13.93;;
62844;SDS011;48929;47.910;20.390;2022-12-29T00:21:20;31.73;;;14.80;;
62844;SDS011;48929;47.910;20.390;2022-12-29T00:26:55;27.20;;;11.63;;
62844;SDS011;48929;47.910;20.390;2022-12-29T00:29:42;26.63;;;12.77;;
62844;SDS011;48929;47.910;20.390;2022-12-29T00:32:28;26.05;;;13.48;;
62844;SDS011;48929;47.910;20.390;2022-12-29T00:35:15;26.85;;;12.68;;
62844;SDS011;48929;47.910;20.390;2022-12-29T00:37:45;29.45;;;14.15;;
62844;SDS011;48929;47.910;20.390;2022-12-29T00:40:31;28.77;;;13.30;;
62844;SDS011;48929;47.910;20.390;2022-12-29T00:43:18;25.27;;;13.38;;
62844;SDS011;48929;47.910;20.390;2022-12-29T00:46:04;26.77;;;12.95;;
62844;SDS011;48929;47.910;20.390;2022-12-29T00:48:32;23.25;;;11.73;;
62844;SDS011;48929;47.910;20.390;2022-12-29T00:51:21;37.35;;;11.45;;
62844;SDS011;48929;47.910;20.390;2022-12-29T00:53:50;25.20;;;11.80;;
62844;SDS011;48929;47.910;20.390;2022-12-29T00:56:18;22.27;;;11.18;;
62844;SDS011;48929;47.910;20.390;2022-12-29T00:58:49;24.42;;;12.10;;
62844;SDS011;48929;47.910;20.390;2022-12-29T01:01:17;24.77;;;11.85;;
62844;SDS011;48929;47.910;20.390;2022-12-29T01:03:46;32.08;;;14.95;;
62844;SDS011;48929;47.910;20.390;2022-12-29T01:06:15;38.30;;;16.75;;
62844;SDS011;48929;47.910;20.390;2022-12-29T01:08:44;38.90;;;17.08;;
62844;SDS011;48929;47.910;20.390;2022-12-29T01:11:12;35.03;;;15.68;;
62844;SDS011;48929;47.910;20.390;2022-12-29T01:13:40;27.85;;;12.43;;
62844;SDS011;48929;47.910;20.390;2022-12-29T01:16:12;29.02;;;14.82;;
62844;SDS011;48929;47.910;20.390;2022-12-29T01:18:40;34.38;;;14.15;;
62844;SDS011;48929;47.910;20.390;2022-12-29T01:21:09;24.92;;;13.07;;
62844;SDS011;48929;47.910;20.390;2022-12-29T01:23:37;33.08;;;14.05;;
62844;SDS011;48929;47.910;20.390;2022-12-29T01:26:09;26.88;;;12.85;;
62844;SDS011;48929;47.910;20.390;2022-12-29T01:28:38;27.98;;;12.57;;
62844;SDS011;48929;47.910;20.390;2022-12-29T01:31:08;26.08;;;12.48;;
62844;SDS011;48929;47.910;20.390;2022-12-29T01:33:39;26.02;;;12.55;;
62844;SDS011;48929;47.910;20.390;2022-12-29T01:36:08;24.77;;;13.27;;
62844;SDS011;48929;47.910;20.390;2022-12-29T01:38:37;28.02;;;13.45;;
62844;SDS011;48929;47.910;20.390;2022-12-29T01:41:06;32.60;;;13.63;;
62844;SDS011;48929;47.910;20.390;2022-12-29T01:43:41;23.00;;;11.75;;
62844;SDS011;48929;47.910;20.390;2022-12-29T01:46:14;25.65;;;13.07;;
62844;SDS011;48929;47.910;20.390;2022-12-29T01:48:45;29.98;;;13.13;;
62844;SDS011;48929;47.910;20.390;2022-12-29T01:51:15;25.08;;;11.70;;
62844;SDS011;48929;47.910;20.390;2022-12-29T01:53:44;27.33;;;13.07;;
62844;SDS011;48929;47.910;20.390;2022-12-29T01:56:14;25.95;;;12.05;;
62844;SDS011;48929;47.910;20.390;2022-12-29T01:58:44;25.05;;;11.35;;
62844;SDS011;48929;47.910;20.390;2022-12-29T02:01:14;26.70;;;12.15;;
62844;SDS011;48929;47.910;20.390;2022-12-29T02:03:46;27.95;;;13.18;;
62844;SDS011;48929;47.910;20.390;2022-12-29T02:06:15;29.13;;;14.38;;
62844;SDS011;48929;47.910;20.390;2022-12-29T02:08:46;31.08;;;13.23;;
62844;SDS011;48929;47.910;20.390;2022-12-29T02:11:15;28.38;;;13.20;;
62844;SDS011;48929;47.910;20.390;2022-12-29T02:13:43;27.10;;;13.35;;
62844;SDS011;48929;47.910;20.390;2022-12-29T02:16:20;25.05;;;13.15;;
62844;SDS011;48929;47.910;20.390;2022-12-29T02:18:54;31.52;;;13.20;;
62844;SDS011;48929;47.910;20.390;2022-12-29T02:24:32;25.50;;;11.38;;
62844;SDS011;48929;47.910;20.390;2022-12-29T02:27:10;26.10;;;11.32;;
62844;SDS011;48929;47.910;20.390;2022-12-29T02:30:01;22.30;;;11.95;;
62844;SDS011;48929;47.910;20.390;2022-12-29T02:32:33;29.23;;;13.05;;
62844;SDS011;48929;47.910;20.390;2022-12-29T02:35:06;28.70;;;12.15;;
62844;SDS011;48929;47.910;20.390;2022-12-29T02:37:38;29.75;;;14.02;;
62844;SDS011;48929;47.910;20.390;2022-12-29T02:40:11;25.77;;;11.52;;
62844;SDS011;48929;47.910;20.390;2022-12-29T02:42:43;23.75;;;11.77;;
62844;SDS011;48929;47.910;20.390;2022-12-29T02:45:16;26.10;;;12.18;;
62844;SDS011;48929;47.910;20.390;2022-12-29T02:47:49;29.17;;;12.10;;
62844;SDS011;48929;47.910;20.390;2022-12-29T02:50:20;24.60;;;11.82;;
62844;SDS011;48929;47.910;20.390;2022-12-29T02:52:50;25.27;;;11.68;;
62844;SDS011;48929;47.910;20.390;2022-12-29T02:55:20;24.92;;;12.15;;
62844;SDS011;48929;47.910;20.390;2022-12-29T02:57:47;24.98;;;11.85;;
62844;SDS011;48929;47.910;20.390;2022-12-29T03:00:16;19.30;;;9.90;;
62844;SDS011;48929;47.910;20.390;2022-12-29T03:02:58;28.40;;;12.13;;
62844;SDS011;48929;47.910;20.390;2022-12-29T03:05:33;21.38;;;10.13;;
62844;SDS011;48929;47.910;20.390;2022-12-29T03:08:12;22.20;;;11.27;;
62844;SDS011;48929;47.910;20.390;2022-12-29T03:10:46;20.65;;;10.55;;
62844;SDS011;48929;47.910;20.390;2022-12-29T03:13:19;27.67;;;12.68;;
62844;SDS011;48929;47.910;20.390;2022-12-29T03:16:11;22.60;;;11.40;;
62844;SDS011;48929;47.910;20.390;2022-12-29T03:18:47;23.48;;;10.98;;
62844;SDS011;48929;47.910;20.390;2022-12-29T03:21:20;24.38;;;12.07;;
62844;SDS011;48929;47.910;20.390;2022-12-29T03:24:11;24.27;;;10.95;;
62844;SDS011;48929;47.910;20.390;2022-12-29T03:26:40;26.65;;;11.35;;
62844;SDS011;48929;47.910;20.390;2022-12-29T03:29:10;22.85;;;10.80;;
62844;SDS011;48929;47.910;20.390;2022-12-29T03:31:40;26.73;;;11.68;;
62844;SDS011;48929;47.910;20.390;2022-12-29T03:34:10;25.10;;;12.32;;
62844;SDS011;48929;47.910;20.390;2022-12-29T03:36:42;26.58;;;11.93;;
62844;SDS011;48929;47.910;20.390;2022-12-29T03:39:12;20.02;;;11.07;;
62844;SDS011;48929;47.910;20.390;2022-12-29T03:41:42;23.27;;;10.60;;
62844;SDS011;48929;47.910;20.390;2022-12-29T03:44:11;21.02;;;10.23;;
62844;SDS011;48929;47.910;20.390;2022-12-29T03:46:40;18.92;;;9.45;;
62844;SDS011;48929;47.910;20.390;2022-12-29T03:49:13;24.88;;;10.88;;
62844;SDS011;48929;47.910;20.390;2022-12-29T03:51:43;25.92;;;12.00;;
62844;SDS011;48929;47.910;20.390;2022-12-29T03:54:15;26.13;;;11.73;;
62844;SDS011;48929;47.910;20.390;2022-12-29T03:56:44;28.17;;;12.43;;
62844;SDS011;48929;47.910;20.390;2022-12-29T03:59:12;24.88;;;11.55;;
62844;SDS011;48929;47.910;20.390;2022-12-29T04:01:40;27.80;;;13.75;;
62844;SDS011;48929;47.910;20.390;2022-12-29T04:04:09;25.33;;;12.20;;
62844;SDS011;48929;47.910;20.390;2022-12-29T04:06:39;24.73;;;11.23;;
62844;SDS011;48929;47.910;20.390;2022-12-29T04:09:07;27.45;;;12.85;;
62844;SDS011;48929;47.910;20.390;2022-12-29T04:11:37;26.25;;;12.15;;
62844;SDS011;48929;47.910;20.390;2022-12-29T04:14:06;23.98;;;11.27;;
62844;SDS011;48929;47.910;20.390;2022-12-29T04:16:34;30.15;;;12.40;;
62844;SDS011;48929;47.910;20.390;2022-12-29T04:19:05;27.15;;;12.15;;
62844;SDS011;48929;47.910;20.390;2022-12-29T04:21:34;24.42;;;10.77;;
62844;SDS011;48929;47.910;20.390;2022-12-29T04:24:05;31.10;;;12.68;;
62844;SDS011;48929;47.910;20.390;2022-12-29T04:26:33;30.42;;;13.23;;
62844;SDS011;48929;47.910;20.390;2022-12-29T04:29:02;34.22;;;13.50;;
62844;SDS011;48929;47.910;20.390;2022-12-29T04:31:30;26.38;;;13.52;;
62844;SDS011;48929;47.910;20.390;2022-12-29T04:34:00;26.60;;;12.93;;
62844;SDS011;48929;47.910;20.390;2022-12-29T04:36:28;29.42;;;13.02;;
62844;SDS011;48929;47.910;20.390;2022-12-29T04:38:57;31.02;;;13.90;;
62844;SDS011;48929;47.910;20.390;2022-12-29T04:41:36;28.77;;;12.75;;
62844;SDS011;48929;47.910;20.390;2022-12-29T04:44:05;30.38;;;13.13;;
62844;SDS011;48929;47.910;20.390;2022-12-29T04:46:33;26.98;;;12.52;;
62844;SDS011;48929;47.910;20.390;2022-12-29T04:49:03;27.45;;;12.02;;
62844;SDS011;48929;47.910;20.390;2022-12-29T04:51:35;22.90;;;11.07;;
62844;SDS011;48929;47.910;20.390;2022-12-29T04:54:04;22.70;;;11.40;;
62844;SDS011;48929;47.910;20.390;2022-12-29T04:56:32;28.58;;;11.82;;
62844;SDS011;48929;47.910;20.390;2022-12-29T04:59:02;26.92;;;12.23;;
62844;SDS011;48929;47.910;20.390;2022-12-29T05:01:31;25.70;;;12.20;;
62844;SDS011;48929;47.910;20.390;2022-12-29T05:03:59;26.13;;;13.13;;
62844;SDS011;48929;47.910;20.390;2022-12-29T05:06:28;26.60;;;11.77;;
62844;SDS011;48929;47.910;20.390;2022-12-29T05:08:57;32.33;;;12.70;;
62844;SDS011;48929;47.910;20.390;2022-12-29T05:11:26;29.48;;;13.70;;
62844;SDS011;48929;47.910;20.390;2022-12-29T05:13:54;27.30;;;13.95;;
62844;SDS011;48929;47.910;20.390;2022-12-29T05:16:25;29.98;;;14.27;;
62844;SDS011;48929;47.910;20.390;2022-12-29T05:18:53;26.65;;;12.77;;
62844;SDS011;48929;47.910;20.390;2022-12-29T05:21:21;30.75;;;13.75;;
62844;SDS011;48929;47.910;20.390;2022-12-29T05:23:50;31.58;;;14.52;;
62844;SDS011;48929;47.910;20.390;2022-12-29T05:26:18;27.50;;;13.20;;
62844;SDS011;48929;47.910;20.390;2022-12-29T05:28:47;28.30;;;13.60;;
62844;SDS011;48929;47.910;20.390;2022-12-29T05:31:15;29.08;;;13.43;;
62844;SDS011;48929;47.910;20.390;2022-12-29T05:33:45;25.52;;;12.85;;
62844;SDS011;48929;47.910;20.390;2022-12-29T05:36:14;27.90;;;12.43;;
62844;SDS011;48929;47.910;20.390;2022-12-29T05:38:44;27.10;;;12.68;;
62844;SDS011;48929;47.910;20.390;2022-12-29T05:41:13;26.40;;;12.48;;
62844;SDS011;48929;47.910;20.390;2022-12-29T05:43:41;25.98;;;12.10;;
62844;SDS011;48929;47.910;20.390;2022-12-29T05:46:09;30.05;;;13.70;;
62844;SDS011;48929;47.910;20.390;2022-12-29T05:48:38;28.52;;;13.77;;
62844;SDS011;48929;47.910;20.390;2022-12-29T05:51:08;29.67;;;14.10;;
62844;SDS011;48929;47.910;20.390;2022-12-29T05:53:37;28.70;;;13.38;;
62844;SDS011;48929;47.910;20.390;2022-12-29T05:56:06;28.27;;;13.13;;
62844;SDS011;48929;47.910;20.390;2022-12-29T05:58:34;29.60;;;12.90;;
62844;SDS011;48929;47.910;20.390;2022-12-29T06:01:03;25.80;;;12.05;;
62844;SDS011;48929;47.910;20.390;2022-12-29T06:03:31;23.98;;;11.85;;
62844;SDS011;48929;47.910;20.390;2022-12-29T06:06:00;27.88;;;12.88;;
62844;SDS011;48929;47.910;20.390;2022-12-29T06:08:30;23.75;;;12.13;;
62844;SDS011;48929;47.910;20.390;2022-12-29T06:10:59;27.25;;;12.18;;
62844;SDS011;48929;47.910;20.390;2022-12-29T06:13:27;29.40;;;14.63;;
62844;SDS011;48929;47.910;20.390;2022-12-29T06:15:56;30.15;;;13.55;;
62844;SDS011;48929;47.910;20.390;2022-12-29T06:18:24;25.38;;;13.07;;
62844;SDS011;48929;47.910;20.390;2022-12-29T06:20:52;24.95;;;12.32;;
62844;SDS011;48929;47.910;20.390;2022-12-29T06:23:21;24.55;;;12.88;;
62844;SDS011;48929;47.910;20.390;2022-12-29T06:25:51;22.45;;;11.82;;
62844;SDS011;48929;47.910;20.390;2022-12-29T06:28:20;26.00;;;13.07;;
62844;SDS011;48929;47.910;20.390;2022-12-29T06:30:48;25.33;;;12.80;;
62844;SDS011;48929;47.910;20.390;2022-12-29T06:33:17;28.40;;;14.15;;
62844;SDS011;48929;47.910;20.390;2022-12-29T06:35:46;23.88;;;11.73;;
62844;SDS011;48929;47.910;20.390;2022-12-29T06:38:15;25.25;;;11.63;;
62844;SDS011;48929;47.910;20.390;2022-12-29T06:40:43;22.13;;;12.23;;
62844;SDS011;48929;47.910;20.390;2022-12-29T06:43:13;23.63;;;11.88;;
62844;SDS011;48929;47.910;20.390;2022-12-29T06:45:42;26.83;;;13.40;;
62844;SDS011;48929;47.910;20.390;2022-12-29T06:48:10;31.67;;;15.55;;
62844;SDS011;48929;47.910;20.390;2022-12-29T06:50:39;27.77;;;14.05;;
62844;SDS011;48929;47.910;20.390;2022-12-29T06:53:08;27.27;;;14.10;;
62844;SDS011;48929;47.910;20.390;2022-12-29T06:55:36;29.27;;;16.50;;
62844;SDS011;48929;47.910;20.390;2022-12-29T06:58:05;25.55;;;13.20;;
62844;SDS011;48929;47.910;20.390;2022-12-29T07:00:36;28.20;;;13.95;;
62844;SDS011;48929;47.910;20.390;2022-12-29T07:03:04;27.75;;;14.63;;
62844;SDS011;48929;47.910;20.390;2022-12-29T07:05:33;24.25;;;13.02;;
62844;SDS011;48929;47.910;20.390;2022-12-29T07:08:01;27.70;;;13.80;;
62844;SDS011;48929;47.910;20.390;2022-12-29T07:10:30;26.55;;;12.73;;
62844;SDS011;48929;47.910;20.390;2022-12-29T07:12:59;30.25;;;14.57;;
62844;SDS011;48929;47.910;20.390;2022-12-29T07:15:28;28.02;;;14.93;;
62844;SDS011;48929;47.910;20.390;2022-12-29T07:17:58;27.77;;;14.30;;
62844;SDS011;48929;47.910;20.390;2022-12-29T07:20:27;24.15;;;12.32;;
62844;SDS011;48929;47.910;20.390;2022-12-29T07:22:55;25.27;;;12.82;;
62844;SDS011;48929;47.910;20.390;2022-12-29T07:25:23;22.55;;;12.55;;
62844;SDS011;48929;47.910;20.390;2022-12-29T07:27:53;21.33;;;12.32;;
62844;SDS011;48929;47.910;20.390;2022-12-29T07:30:22;24.63;;;13.23;;
62844;SDS011;48929;47.910;20.390;2022-12-29T07:32:50;23.83;;;12.90;;
62844;SDS011;48929;47.910;20.390;2022-12-29T07:35:25;29.23;;;12.50;;
62844;SDS011;48929;47.910;20.390;2022-12-29T07:37:53;27.67;;;13.02;;
62844;SDS011;48929;47.910;20.390;2022-12-29T07:40:22;24.02;;;13.10;;
62844;SDS011;48929;47.910;20.390;2022-12-29T07:42:50;24.80;;;12.68;;
62844;SDS011;48929;47.910;20.390;2022-12-29T07:45:19;22.58;;;12.30;;
62844;SDS011;48929;47.910;20.390;2022-12-29T07:47:48;20.65;;;11.55;;
62844;SDS011;48929;47.910;20.390;2022-12-29T07:50:17;27.70;;;13.63;;
62844;SDS011;48929;47.910;20.390;2022-12-29T07:52:47;22.58;;;11.55;;
62844;SDS011;48929;47.910;20.390;2022-12-29T07:55:16;25.80;;;12.25;;
62844;SDS011;48929;47.910;20.390;2022-12-29T07:57:44;24.50;;;13.35;;
62844;SDS011;48929;47.910;20.390;2022-12-29T08:00:13;23.55;;;13.02;;
62844;SDS011;48929;47.910;20.390;2022-12-29T08:02:41;28.63;;;12.93;;
62844;SDS011;48929;47.910;20.390;2022-12-29T08:05:12;25.35;;;12.27;;
62844;SDS011;48929;47.910;20.390;2022-12-29T08:07:42;25.50;;;11.93;;
62844;SDS011;48929;47.910;20.390;2022-12-29T08:10:12;20.40;;;11.60;;
62844;SDS011;48929;47.910;20.390;2022-12-29T08:12:41;23.88;;;11.68;;
62844;SDS011;48929;47.910;20.390;2022-12-29T08:15:10;24.17;;;12.45;;
62844;SDS011;48929;47.910;20.390;2022-12-29T08:17:39;25.35;;;12.50;;
62844;SDS011;48929;47.910;20.390;2022-12-29T08:20:08;23.45;;;11.75;;
62844;SDS011;48929;47.910;20.390;2022-12-29T08:22:37;23.33;;;12.93;;
62844;SDS011;48929;47.910;20.390;2022-12-29T08:25:06;24.52;;;13.05;;
62844;SDS011;48929;47.910;20.390;2022-12-29T08:27:36;24.50;;;12.80;;
62844;SDS011;48929;47.910;20.390;2022-12-29T08:30:05;22.52;;;11.52;;
62844;SDS011;48929;47.910;20.390;2022-12-29T08:32:34;20.48;;;11.70;;
62844;SDS011;48929;47.910;20.390;2022-12-29T08:35:03;27.73;;;13.23;;
62844;SDS011;48929;47.910;20.390;2022-12-29T08:37:32;23.77;;;12.95;;
62844;SDS011;48929;47.910;20.390;2022-12-29T08:40:00;25.75;;;12.32;;
62844;SDS011;48929;47.910;20.390;2022-12-29T08:42:30;21.90;;;12.40;;
62844;SDS011;48929;47.910;20.390;2022-12-29T08:45:01;23.83;;;12.38;;
62844;SDS011;48929;47.910;20.390;2022-12-29T08:47:29;25.05;;;12.15;;
62844;SDS011;48929;47.910;20.390;2022-12-29T08:49:58;23.63;;;11.55;;
62844;SDS011;48929;47.910;20.390;2022-12-29T08:52:27;22.83;;;11.20;;
62844;SDS011;48929;47.910;20.390;2022-12-29T08:54:56;25.88;;;11.88;;
62844;SDS011;48929;47.910;20.390;2022-12-29T08:57:25;23.80;;;11.63;;
62844;SDS011;48929;47.910;20.390;2022-12-29T09:00:05;23.30;;;11.65;;
62844;SDS011;48929;47.910;20.390;2022-12-29T09:02:34;23.20;;;12.15;;
62844;SDS011;48929;47.910;20.390;2022-12-29T09:05:03;22.42;;;11.52;;
62844;SDS011;48929;47.910;20.390;2022-12-29T09:07:32;22.02;;;11.88;;
62844;SDS011;48929;47.910;20.390;2022-12-29T09:10:01;24.40;;;12.18;;
62844;SDS011;48929;47.910;20.390;2022-12-29T09:12:32;24.00;;;11.27;;
62844;SDS011;48929;47.910;20.390;2022-12-29T09:15:06;22.77;;;11.27;;
62844;SDS011;48929;47.910;20.390;2022-12-29T09:17:35;24.10;;;11.85;;
62844;SDS011;48929;47.910;20.390;2022-12-29T09:20:10;21.27;;;11.95;;
62844;SDS011;48929;47.910;20.390;2022-12-29T09:22:40;20.30;;;11.82;;
62844;SDS011;48929;47.910;20.390;2022-12-29T09:25:08;22.27;;;11.38;;
62844;SDS011;48929;47.910;20.390;2022-12-29T09:27:38;23.10;;;11.65;;
62844;SDS011;48929;47.910;20.390;2022-12-29T09:30:09;20.92;;;11.40;;
62844;SDS011;48929;47.910;20.390;2022-12-29T09:32:38;21.38;;;11.57;;
62844;SDS011;48929;47.910;20.390;2022-12-29T09:35:11;18.65;;;11.10;;
62844;SDS011;48929;47.910;20.390;2022-12-29T09:37:40;21.95;;;11.30;;
62844;SDS011;48929;47.910;20.390;2022-12-29T09:40:10;22.83;;;12.05;;
62844;SDS011;48929;47.910;20.390;2022-12-29T09:42:54;20.20;;;11.23;;
62844;SDS011;48929;47.910;20.390;2022-12-29T09:45:26;24.45;;;11.95;;
62844;SDS011;48929;47.910;20.390;2022-12-29T09:47:57;23.58;;;11.80;;
62844;SDS011;48929;47.910;20.390;2022-12-29T09:50:32;25.05;;;12.65;;
62844;SDS011;48929;47.910;20.390;2022-12-29T09:53:03;22.92;;;11.30;;
62844;SDS011;48929;47.910;20.390;2022-12-29T09:55:34;21.67;;;11.82;;
62844;SDS011;48929;47.910;20.390;2022-12-29T09:58:05;24.17;;;13.05;;
62844;SDS011;48929;47.910;20.390;2022-12-29T10:00:36;25.42;;;12.55;;
62844;SDS011;48929;47.910;20.390;2022-12-29T10:03:05;25.08;;;12.60;;
62844;SDS011;48929;47.910;20.390;2022-12-29T10:05:39;21.10;;;12.15;;
62844;SDS011;48929;47.910;20.390;2022-12-29T10:08:17;23.33;;;12.32;;
62844;SDS011;48929;47.910;20.390;2022-12-29T10:10:51;22.65;;;12.30;;
62844;SDS011;48929;47.910;20.390;2022-12-29T10:13:26;25.08;;;13.05;;
62844;SDS011;48929;47.910;20.390;2022-12-29T10:16:02;22.38;;;11.70;;
62844;SDS011;48929;47.910;20.390;2022-12-29T10:21:24;24.63;;;13.07;;
62844;SDS011;48929;47.910;20.390;2022-12-29T10:24:14;21.65;;;11.77;;
62844;SDS011;48929;47.910;20.390;2022-12-29T10:26:44;20.63;;;11.50;;
62844;SDS011;48929;47.910;20.390;2022-12-29T10:29:16;24.25;;;12.68;;
62844;SDS011;48929;47.910;20.390;2022-12-29T10:31:47;24.38;;;12.82;;
62844;SDS011;48929;47.910;20.390;2022-12-29T10:34:19;20.75;;;11.95;;
62844;SDS011;48929;47.910;20.390;2022-12-29T10:36:49;19.17;;;11.65;;
62844;SDS011;48929;47.910;20.390;2022-12-29T10:39:21;24.55;;;12.32;;
62844;SDS011;48929;47.910;20.390;2022-12-29T10:41:53;23.77;;;13.05;;
62844;SDS011;48929;47.910;20.390;2022-12-29T10:44:26;24.42;;;13.23;;
62844;SDS011;48929;47.910;20.390;2022-12-29T10:46:59;25.20;;;13.50;;
62844;SDS011;48929;47.910;20.390;2022-12-29T10:49:28;23.10;;;13.38;;
62844;SDS011;48929;47.910;20.390;2022-12-29T10:52:00;25.17;;;12.95;;
62844;SDS011;48929;47.910;20.390;2022-12-29T10:54:32;22.65;;;12.60;;
62844;SDS011;48929;47.910;20.390;2022-12-29T10:57:01;21.08;;;12.20;;
62844;SDS011;48929;47.910;20.390;2022-12-29T10:59:32;25.80;;;12.40;;
62844;SDS011;48929;47.910;20.390;2022-12-29T11:02:13;22.67;;;12.60;;
62844;SDS011;48929;47.910;20.390;2022-12-29T11:04:46;21.92;;;12.48;;
62844;SDS011;48929;47.910;20.390;2022-12-29T11:07:20;22.45;;;12.93;;
62844;SDS011;48929;47.910;20.390;2022-12-29T11:09:54;20.52;;;12.23;;
62844;SDS011;48929;47.910;20.390;2022-12-29T11:12:24;24.83;;;12.63;;
62844;SDS011;48929;47.910;20.390;2022-12-29T11:15:06;24.52;;;13.40;;
62844;SDS011;48929;47.910;20.390;2022-12-29T11:17:47;23.90;;;12.73;;
62844;SDS011;48929;47.910;20.390;2022-12-29T11:23:04;24.38;;;13.25;;
62844;SDS011;48929;47.910;20.390;2022-12-29T11:25:33;22.48;;;13.05;;
62844;SDS011;48929;47.910;20.390;2022-12-29T11:28:03;22.77;;;12.85;;
62844;SDS011;48929;47.910;20.390;2022-12-29T11:30:40;22.05;;;13.00;;
62844;SDS011;48929;47.910;20.390;2022-12-29T11:33:10;25.73;;;13.50;;
62844;SDS011;48929;47.910;20.390;2022-12-29T11:35:42;22.05;;;11.88;;
62844;SDS011;48929;47.910;20.390;2022-12-29T11:38:16;25.38;;;13.48;;
62844;SDS011;48929;47.910;20.390;2022-12-29T11:40:47;27.90;;;14.32;;
62844;SDS011;48929;47.910;20.390;2022-12-29T11:43:18;24.73;;;14.00;;
62844;SDS011;48929;47.910;20.390;2022-12-29T11:45:48;25.52;;;13.50;;
62844;SDS011;48929;47.910;20.390;2022-12-29T11:48:18;26.88;;;13.57;;
62844;SDS011;48929;47.910;20.390;2022-12-29T11:50:48;26.05;;;13.75;;
62844;SDS011;48929;47.910;20.390;2022-12-29T11:53:20;25.30;;;14.07;;
62844;SDS011;48929;47.910;20.390;2022-12-29T11:55:50;27.45;;;14.07;;
62844;SDS011;48929;47.910;20.390;2022-12-29T11:58:20;27.35;;;14.23;;
62844;SDS011;48929;47.910;20.390;2022-12-29T12:00:48;26.00;;;14.57;;
62844;SDS011;48929;47.910;20.390;2022-12-29T12:03:19;25.17;;;13.60;;
62844;SDS011;48929;47.910;20.390;2022-12-29T12:05:48;32.15;;;16.48;;
62844;SDS011;48929;47.910;20.390;2022-12-29T12:08:22;26.30;;;15.75;;
62844;SDS011;48929;47.910;20.390;2022-12-29T12:10:54;29.35;;;15.32;;
62844;SDS011;48929;47.910;20.390;2022-12-29T12:13:25;26.88;;;15.68;;
62844;SDS011;48929;47.910;20.390;2022-12-29T12:15:57;26.95;;;15.00;;
62844;SDS011;48929;47.910;20.390;2022-12-29T12:18:32;26.63;;;15.63;;
62844;SDS011;48929;47.910;20.390;2022-12-29T12:21:06;29.33;;;15.77;;
62844;SDS011;48929;47.910;20.390;2022-12-29T12:23:38;28.52;;;16.88;;
62844;SDS011;48929;47.910;20.390;2022-12-29T12:26:11;28.98;;;15.55;;
62844;SDS011;48929;47.910;20.390;2022-12-29T12:28:42;28.48;;;15.43;;
62844;SDS011;48929;47.910;20.390;2022-12-29T12:31:16;29.73;;;17.65;;
62844;SDS011;48929;47.910;20.390;2022-12-29T12:33:47;30.60;;;15.05;;
62844;SDS011;48929;47.910;20.390;2022-12-29T12:36:24;30.52;;;16.10;;
62844;SDS011;48929;47.910;20.390;2022-12-29T12:38:58;31.17;;;15.77;;
62844;SDS011;48929;47.910;20.390;2022-12-29T12:41:33;29.63;;;15.98;;
62844;SDS011;48929;47.910;20.390;2022-12-29T12:44:09;31.13;;;16.90;;
62844;SDS011;48929;47.910;20.390;2022-12-29T12:46:53;26.45;;;15.02;;
62844;SDS011;48929;47.910;20.390;2022-12-29T12:49:33;27.02;;;14.27;;
62844;SDS011;48929;47.910;20.390;2022-12-29T12:52:06;30.40;;;15.52;;
62844;SDS011;48929;47.910;20.390;2022-12-29T12:54:41;27.98;;;15.70;;
62844;SDS011;48929;47.910;20.390;2022-12-29T12:57:17;28.23;;;16.25;;
62844;SDS011;48929;47.910;20.390;2022-12-29T12:59:52;28.42;;;16.10;;
62844;SDS011;48929;47.910;20.390;2022-12-29T13:02:34;29.17;;;16.10;;
62844;SDS011;48929;47.910;20.390;2022-12-29T13:08:09;26.90;;;15.80;;
62844;SDS011;48929;47.910;20.390;2022-12-29T13:10:47;25.58;;;13.20;;
62844;SDS011;48929;47.910;20.390;2022-12-29T13:16:08;26.38;;;13.73;;
62844;SDS011;48929;47.910;20.390;2022-12-29T13:18:44;30.08;;;16.23;;
62844;SDS011;48929;47.910;20.390;2022-12-29T13:21:18;28.92;;;15.80;;
62844;SDS011;48929;47.910;20.390;2022-12-29T13:23:54;25.17;;;14.65;;
62844;SDS011;48929;47.910;20.390;2022-12-29T13:26:25;25.73;;;13.93;;
62844;SDS011;48929;47.910;20.390;2022-12-29T13:28:57;26.85;;;14.50;;
62844;SDS011;48929;47.910;20.390;2022-12-29T13:31:33;26.77;;;14.00;;
62844;SDS011;48929;47.910;20.390;2022-12-29T13:34:05;28.88;;;14.82;;
62844;SDS011;48929;47.910;20.390;2022-12-29T13:36:39;29.02;;;15.23;;
62844;SDS011;48929;47.910;20.390;2022-12-29T13:39:13;25.60;;;14.38;;
62844;SDS011;48929;47.910;20.390;2022-12-29T13:41:48;27.48;;;15.48;;
62844;SDS011;48929;47.910;20.390;2022-12-29T13:44:19;26.23;;;15.82;;
62844;SDS011;48929;47.910;20.390;2022-12-29T13:46:49;27.48;;;14.27;;
62844;SDS011;48929;47.910;20.390;2022-12-29T13:49:18;26.40;;;14.82;;
62844;SDS011;48929;47.910;20.390;2022-12-29T13:51:49;32.00;;;16.77;;
62844;SDS011;48929;47.910;20.390;2022-12-29T13:54:22;26.48;;;14.63;;
62844;SDS011;48929;47.910;20.390;2022-12-29T13:56:56;25.33;;;14.65;;
62844;SDS011;48929;47.910;20.390;2022-12-29T13:59:30;28.45;;;15.70;;
62844;SDS011;48929;47.910;20.390;2022-12-29T14:02:10;28.08;;;15.40;;
62844;SDS011;48929;47.910;20.390;2022-12-29T14:04:54;26.83;;;14.70;;
62844;SDS011;48929;47.910;20.390;2022-12-29T14:07:26;33.85;;;15.88;;
62844;SDS011;48929;47.910;20.390;2022-12-29T14:09:57;27.92;;;14.90;;
62844;SDS011;48929;47.910;20.390;2022-12-29T14:12:30;32.67;;;15.50;;
62844;SDS011;48929;47.910;20.390;2022-12-29T14:18:05;28.02;;;15.20;;
62844;SDS011;48929;47.910;20.390;2022-12-29T14:20:37;24.42;;;13.93;;
62844;SDS011;48929;47.910;20.390;2022-12-29T14:23:16;30.35;;;15.07;;
62844;SDS011;48929;47.910;20.390;2022-12-29T14:25:54;29.58;;;15.45;;
62844;SDS011;48929;47.910;20.390;2022-12-29T14:28:23;29.02;;;14.50;;
62844;SDS011;48929;47.910;20.390;2022-12-29T14:30:54;30.02;;;15.23;;
62844;SDS011;48929;47.910;20.390;2022-12-29T14:33:23;27.00;;;14.95;;
62844;SDS011;48929;47.910;20.390;2022-12-29T14:35:53;27.33;;;15.95;;
62844;SDS011;48929;47.910;20.390;2022-12-29T14:38:23;28.23;;;15.25;;
62844;SDS011;48929;47.910;20.390;2022-12-29T14:41:15;27.48;;;14.85;;
62844;SDS011;48929;47.910;20.390;2022-12-29T14:44:11;30.20;;;14.85;;
62844;SDS011;48929;47.910;20.390;2022-12-29T14:46:47;26.08;;;15.05;;
62844;SDS011;48929;47.910;20.390;2022-12-29T14:49:18;27.35;;;14.60;;
62844;SDS011;48929;47.910;20.390;2022-12-29T14:51:47;28.38;;;15.80;;
62844;SDS011;48929;47.910;20.390;2022-12-29T14:57:07;28.02;;;15.45;;